RJAA Airport Information

Runway Information
Runway 16R Length 13123 ft width 196 ft Elevation 130 ft Threshold N/A Heading 150
Runway 34L Length 13123 ft Width 196 ft Elevation 139 ft Threshold 2460 ft Heading 330
Runway 16L Length 8202 ft width 196 ft Elevation 135 ft Threshold 190 ft Heading 150
Runway 34R Length 8202 ft Width 196 ft Elevation 141 ft Threshold 190 ft Heading 330
Airport Frequencies
Type APP Name TOKYO APP Frequency 124.4 MHZ
Type ATIS Name ATIS Frequency 128.25 MHZ
Type CLD Name CLNC DEL Frequency 121.9 MHZ
Type DEP Name TOKYO DEP Frequency 124.2 MHZ
Type GND Name GND Frequency 121.95 MHZ
Type RMP Name RAMP Frequency 121.6 MHZ
Type TCA Name TOKYO TCA Frequency 119.45 MHZ
Type TWR Name TWR Frequency 118.2 MHZ
Type TWR Name Frequency 118.35 MHZ
Type GND Name Frequency 121.85 MHZ
Type RMP Name RAMP Frequency 121.75 MHZ
Type CLR Name CLNC DEL Frequency 121.65 MHZ
Type RDR Name TOKYO RDR Frequency 120.2 MHZ
Airport Navaids
Type VOR-DME Name Narita Frequency 117900 KHZ
Type VOR-DME Name Sakura Frequency 112700 KHZ
Airport Weather Information & NOTAM
ADDS - METARS form results

(1751 UTC 08 February 2023)
Data provider http://aviationweather.gov/metar/data/
 
METAR text: RJAA 081730Z AUTO 32007KT 9999 NCD 03/M00 Q1020 NOSIG RMK A3014
Conditions at: RJAA (NARITA INTL , JP) observed 1730 UTC 08 February 2023
Temperature: 3.0°C (37°F)
Dewpoint: 0.0°C (32°F) [RH = 81%]
Pressure (altimeter): 30.12 inches Hg (1020.0 mb)
Winds: from the NW (320 degrees) at 8 MPH (7 knots; 3.6 m/s)
Visibility: 6 or more miles (10+ km)
Ceiling: at least 12,000 feet AGL
Clouds: sky clear below 12,000 feet AGL
Weather: no significant weather observed at this time

METAR text: RJAA 081700Z AUTO 30006KT 270V330 9999 NCD 04/00 Q1020 NOSIG RMK A3014
Conditions at: RJAA (NARITA INTL , JP) observed 1700 UTC 08 February 2023
Temperature: 4.0°C (39°F)
Dewpoint: 0.0°C (32°F) [RH = 75%]
Pressure (altimeter): 30.12 inches Hg (1020.0 mb)
Winds: from the WNW (300 degrees) at 7 MPH (6 knots; 3.1 m/s)
Visibility: 6 or more miles (10+ km)
Ceiling: at least 12,000 feet AGL
Clouds: sky clear below 12,000 feet AGL
Weather: no significant weather observed at this time

Forecast for: RJAA (NARITA INTL , JP)
Text: TAF RJAA 081706Z 0818/1000 33010KT 9999 FEW030
Forecast period: 1800 UTC 08 February 2023 to 0000 UTC 10 February 2023
Forecast type: FROM: standard forecast or significant change
Winds: from the NNW (330 degrees) at 12 MPH (10 knots; 5.1 m/s)
Visibility: 6 or more miles (10+ km)
Ceiling: at least 12,000 feet AGL
Clouds: few clouds at 3000 feet AGL
Weather: no significant weather forecast for this period